Time,TemperatureF,DewpointF,PressureIn,WindDirection,WindDirectionDegrees,WindSpeedMPH,WindSpeedGustMPH,Humidity,HourlyPrecipIn,Conditions,Clouds,dailyrainin,SoftwareType,DateUTC
2013-05-09 00:02:00,60.0,59.0,29.94,SSE,157,4.0,6.0,94,-99.99,,,-99.99,,2013-05-09 05:02:00,
2013-05-09 00:12:00,60.0,58.0,29.94,SSE,157,4.0,6.0,94,-99.99,,,-99.99,,2013-05-09 05:12:00,
2013-05-09 00:22:00,60.0,58.0,29.95,SSE,157,5.0,7.0,93,-99.99,,,-99.99,,2013-05-09 05:22:00,
2013-05-09 00:32:00,60.0,58.0,29.95,SSE,157,4.0,7.0,93,-99.99,,,-99.99,,2013-05-09 05:32:00,
2013-05-09 00:42:00,60.0,58.0,29.95,SSE,157,4.0,6.0,93,-99.99,,,-99.99,,2013-05-09 05:42:00,
2013-05-09 00:51:00,60.0,58.0,29.94,SSE,157,4.0,6.0,93,-99.99,,,-99.99,,2013-05-09 05:51:00,
2013-05-09 01:01:00,60.0,58.0,29.94,SE,135,4.0,6.0,93,-99.99,,,-99.99,,2013-05-09 06:01:00,
2013-05-09 01:11:00,60.0,58.0,29.93,SE,135,5.0,7.0,92,-99.99,,,-99.99,,2013-05-09 06:11:00,
2013-05-09 01:21:00,60.0,58.0,29.93,SSE,157,5.0,7.0,92,-99.99,,,-99.99,,2013-05-09 06:21:00,
2013-05-09 01:32:00,60.0,58.0,29.92,SSE,157,4.0,6.0,91,-99.99,,,-99.99,,2013-05-09 06:32:00,
2013-05-09 01:42:00,60.0,57.0,29.92,SSE,157,4.0,6.0,92,-99.99,,,-99.99,,2013-05-09 06:42:00,
2013-05-09 01:52:00,59.0,57.0,29.92,SSE,157,3.0,4.0,92,-99.99,,,-99.99,,2013-05-09 06:52:00,
2013-05-09 02:01:00,60.0,57.0,29.92,SE,135,4.0,5.0,92,-99.99,,,-99.99,,2013-05-09 07:01:00,
2013-05-09 02:12:00,60.0,57.0,29.91,SE,135,5.0,6.0,89,-99.99,,,-99.99,,2013-05-09 07:12:00,
2013-05-09 02:21:00,61.0,57.0,29.91,SSE,157,5.0,8.0,88,-99.99,,,-99.99,,2013-05-09 07:21:00,
2013-05-09 02:32:00,61.0,57.0,29.91,SSE,157,6.0,7.0,87,-99.99,,,-99.99,,2013-05-09 07:32:00,
2013-05-09 02:42:00,61.0,57.0,29.90,SE,135,6.0,8.0,87,-99.99,,,-99.99,,2013-05-09 07:42:00,
2013-05-09 02:52:00,60.0,57.0,29.90,South,180,5.0,9.0,87,-99.99,,,-99.99,,2013-05-09 07:52:00,
2013-05-09 03:02:00,60.0,57.0,29.90,SSE,157,4.0,7.0,88,-99.99,,,-99.99,,2013-05-09 08:02:00,
2013-05-09 03:11:00,61.0,57.0,29.90,SSE,157,5.0,6.0,88,-99.99,,,-99.99,,2013-05-09 08:11:00,
2013-05-09 03:21:00,60.0,57.0,29.89,SE,135,5.0,7.0,89,-99.99,,,-99.99,,2013-05-09 08:21:00,
2013-05-09 03:31:00,60.0,57.0,29.89,SE,135,5.0,6.0,89,-99.99,,,-99.99,,2013-05-09 08:31:00,
2013-05-09 03:41:00,60.0,57.0,29.89,SSE,157,4.0,6.0,89,-99.99,,,-99.99,,2013-05-09 08:41:00,
2013-05-09 03:51:00,60.0,57.0,29.89,SSE,157,4.0,6.0,89,-99.99,,,-99.99,,2013-05-09 08:51:00,
2013-05-09 04:02:00,60.0,57.0,29.90,SSE,157,4.0,7.0,89,-99.99,,,-99.99,,2013-05-09 09:02:00,
2013-05-09 04:11:00,61.0,57.0,29.90,SSE,157,4.0,8.0,85,-99.99,,,-99.99,,2013-05-09 09:11:00,
2013-05-09 04:21:00,62.0,57.0,29.89,South,180,5.0,7.0,84,-99.99,,,-99.99,,2013-05-09 09:21:00,
2013-05-09 04:32:00,63.0,57.0,29.88,SSE,157,5.0,8.0,82,-99.99,,,-99.99,,2013-05-09 09:32:00,
2013-05-09 04:42:00,63.0,57.0,29.88,South,180,5.0,8.0,81,-99.99,,,-99.99,,2013-05-09 09:42:00,
2013-05-09 04:52:00,63.0,57.0,29.88,SSE,157,5.0,8.0,81,-99.99,,,-99.99,,2013-05-09 09:52:00,
2013-05-09 05:02:00,63.0,57.0,29.88,South,180,4.0,7.0,82,-99.99,,,-99.99,,2013-05-09 10:02:00,
2013-05-09 05:12:00,63.0,57.0,29.88,South,180,5.0,8.0,82,-99.99,,,-99.99,,2013-05-09 10:12:00,
2013-05-09 05:22:00,63.0,57.0,29.88,South,180,6.0,9.0,82,-99.99,,,-99.99,,2013-05-09 10:22:00,
2013-05-09 05:33:00,62.0,58.0,29.89,NNW,337,7.0,11.0,85,-99.99,,,-99.99,,2013-05-09 10:33:00,
2013-05-09 05:42:00,61.0,58.0,29.89,East,90,7.0,10.0,87,-99.99,,,-99.99,,2013-05-09 10:42:00,
2013-05-09 05:52:00,61.0,58.0,29.89,NNW,337,3.0,7.0,87,-99.99,,,-99.99,,2013-05-09 10:52:00,
2013-05-09 06:02:00,61.0,58.0,29.90,East,90,3.0,7.0,89,-99.99,,,-99.99,,2013-05-09 11:02:00,
2013-05-09 06:12:00,61.0,58.0,29.90,NNE,22,3.0,4.0,90,-99.99,,,-99.99,,2013-05-09 11:12:00,
2013-05-09 06:22:00,61.0,58.0,29.90,NE,45,2.0,3.0,88,-99.99,,,-99.99,,2013-05-09 11:22:00,
2013-05-09 06:32:00,61.0,58.0,29.90,North,0,2.0,3.0,89,-99.99,,,-99.99,,2013-05-09 11:32:00,
2013-05-09 06:41:00,60.0,58.0,29.90,NNE,22,3.0,4.0,92,-99.99,,,-99.99,,2013-05-09 11:41:00,
2013-05-09 06:51:00,60.0,58.0,29.90,SE,135,4.0,4.0,93,-99.99,,,-99.99,,2013-05-09 11:51:00,
2013-05-09 07:01:00,62.0,59.0,29.90,NE,45,2.0,3.0,91,-99.99,,,-99.99,,2013-05-09 12:01:00,
2013-05-09 07:11:00,61.0,59.0,29.90,North,0,3.0,4.0,92,-99.99,,,-99.99,,2013-05-09 12:11:00,
2013-05-09 07:22:00,62.0,59.0,29.89,ESE,112,3.0,4.0,91,-99.99,,,-99.99,,2013-05-09 12:22:00,
2013-05-09 07:31:00,62.0,59.0,29.90,SE,135,3.0,4.0,90,-99.99,,,-99.99,,2013-05-09 12:31:00,
2013-05-09 07:42:00,63.0,60.0,29.89,SE,135,3.0,4.0,90,-99.99,,,-99.99,,2013-05-09 12:42:00,
2013-05-09 07:51:00,63.0,60.0,29.89,SE,135,4.0,5.0,88,-99.99,,,-99.99,,2013-05-09 12:51:00,
2013-05-09 08:01:00,63.0,60.0,29.89,ESE,112,3.0,4.0,88,-99.99,,,-99.99,,2013-05-09 13:01:00,
2013-05-09 08:12:00,63.0,60.0,29.89,ESE,112,3.0,5.0,88,-99.99,,,-99.99,,2013-05-09 13:12:00,
2013-05-09 08:21:00,64.0,60.0,29.89,SE,135,3.0,4.0,87,-99.99,,,-99.99,,2013-05-09 13:21:00,
2013-05-09 08:32:00,65.0,61.0,29.89,SE,135,4.0,5.0,87,-99.99,,,-99.99,,2013-05-09 13:32:00,
2013-05-09 08:42:00,65.0,60.0,29.89,South,180,4.0,6.0,84,-99.99,,,-99.99,,2013-05-09 13:42:00,
2013-05-09 08:52:00,65.0,61.0,29.90,SSE,157,2.0,4.0,86,-99.99,,,-99.99,,2013-05-09 13:52:00,
2013-05-09 09:01:00,64.0,60.0,29.89,SSE,157,3.0,6.0,86,-99.99,,,-99.99,,2013-05-09 14:01:00,
2013-05-09 09:11:00,64.0,61.0,29.90,SE,135,4.0,7.0,88,-99.99,,,-99.99,,2013-05-09 14:11:00,
2013-05-09 09:21:00,63.0,61.0,29.88,ESE,112,4.0,6.0,91,-99.99,,,-99.99,,2013-05-09 14:21:00,
2013-05-09 09:32:00,64.0,61.0,29.89,SE,135,4.0,7.0,92,-99.99,,,-99.99,,2013-05-09 14:32:00,
2013-05-09 09:41:00,64.0,61.0,29.90,SSE,157,7.0,9.0,92,-99.99,,,-99.99,,2013-05-09 14:41:00,
2013-05-09 09:52:00,63.0,61.0,29.90,SSE,157,6.0,10.0,93,-99.99,,,-99.99,,2013-05-09 14:52:00,
2013-05-09 10:01:00,63.0,61.0,29.90,SSE,157,5.0,8.0,91,-99.99,,,-99.99,,2013-05-09 15:01:00,
2013-05-09 10:11:00,63.0,61.0,29.89,South,180,4.0,8.0,91,-99.99,,,-99.99,,2013-05-09 15:11:00,
2013-05-09 10:21:00,63.0,61.0,29.89,SSW,202,4.0,6.0,92,-99.99,,,-99.99,,2013-05-09 15:21:00,
2013-05-09 10:33:00,63.0,61.0,29.89,SE,135,4.0,7.0,92,-99.99,,,-99.99,,2013-05-09 15:33:00,
2013-05-09 10:43:00,63.0,61.0,29.88,SE,135,4.0,6.0,93,-99.99,,,-99.99,,2013-05-09 15:43:00,
2013-05-09 10:52:00,63.0,61.0,29.88,SSE,157,4.0,7.0,94,-99.99,,,-99.99,,2013-05-09 15:52:00,
2013-05-09 11:03:00,63.0,61.0,29.88,SE,135,2.0,4.0,94,-99.99,,,-99.99,,2013-05-09 16:03:00,
2013-05-09 11:12:00,63.0,61.0,29.89,SSE,157,5.0,7.0,95,-99.99,,,-99.99,,2013-05-09 16:12:00,
2013-05-09 11:22:00,63.0,62.0,29.88,SE,135,4.0,6.0,95,-99.99,,,-99.99,,2013-05-09 16:22:00,
2013-05-09 11:33:00,64.0,62.0,29.88,SSE,157,4.0,5.0,94,-99.99,,,-99.99,,2013-05-09 16:33:00,
2013-05-09 11:42:00,64.0,62.0,29.89,SW,225,3.0,6.0,94,-99.99,,,-99.99,,2013-05-09 16:42:00,
2013-05-09 11:52:00,64.0,62.0,29.88,WSW,247,4.0,7.0,94,-99.99,,,-99.99,,2013-05-09 16:52:00,
2013-05-09 12:02:00,64.0,63.0,29.88,WSW,247,4.0,7.0,95,-99.99,,,-99.99,,2013-05-09 17:02:00,
2013-05-09 12:12:00,64.0,62.0,29.88,SW,225,4.0,6.0,94,-99.99,,,-99.99,,2013-05-09 17:12:00,
2013-05-09 12:21:00,65.0,63.0,29.88,WSW,247,5.0,7.0,94,-99.99,,,-99.99,,2013-05-09 17:21:00,
2013-05-09 12:32:00,65.0,63.0,29.87,WSW,247,5.0,7.0,94,-99.99,,,-99.99,,2013-05-09 17:32:00,
2013-05-09 12:42:00,65.0,63.0,29.88,WSW,247,7.0,10.0,92,-99.99,,,-99.99,,2013-05-09 17:42:00,
2013-05-09 12:55:00,64.0,62.0,29.87,West,270,7.0,11.0,92,-99.99,,,-99.99,,2013-05-09 17:55:00,
2013-05-09 13:01:00,64.0,62.0,29.87,West,270,6.0,9.0,93,-99.99,,,-99.99,,2013-05-09 18:01:00,
2013-05-09 13:12:00,64.0,62.0,29.87,WSW,247,6.0,8.0,94,-99.99,,,-99.99,,2013-05-09 18:12:00,
2013-05-09 13:21:00,63.0,62.0,29.87,WSW,247,8.0,11.0,94,-99.99,,,-99.99,,2013-05-09 18:21:00,
2013-05-09 13:31:00,63.0,61.0,29.87,WSW,247,10.0,16.0,94,-99.99,,,-99.99,,2013-05-09 18:31:00,
2013-05-09 13:42:00,65.0,62.0,29.87,West,270,8.0,13.0,91,-99.99,,,-99.99,,2013-05-09 18:42:00,
2013-05-09 13:52:00,66.0,63.0,29.87,WSW,247,9.0,13.0,89,-99.99,,,-99.99,,2013-05-09 18:52:00,
2013-05-09 14:01:00,65.0,62.0,29.88,WSW,247,9.0,15.0,89,-99.99,,,-99.99,,2013-05-09 19:01:00,
2013-05-09 14:11:00,66.0,61.0,29.87,SW,225,8.0,12.0,84,-99.99,,,-99.99,,2013-05-09 19:11:00,
2013-05-09 14:21:00,66.0,61.0,29.87,WSW,247,10.0,14.0,85,-99.99,,,-99.99,,2013-05-09 19:21:00,
2013-05-09 14:31:00,69.0,62.0,29.87,WSW,247,10.0,15.0,80,-99.99,,,-99.99,,2013-05-09 19:31:00,
2013-05-09 14:41:00,68.0,61.0,29.87,WSW,247,13.0,18.0,78,-99.99,,,-99.99,,2013-05-09 19:41:00,
2013-05-09 14:52:00,69.0,63.0,29.85,SW,225,8.0,13.0,81,-99.99,,,-99.99,,2013-05-09 19:52:00,
2013-05-09 15:01:00,70.0,63.0,29.85,SW,225,8.0,12.0,79,-99.99,,,-99.99,,2013-05-09 20:01:00,
2013-05-09 15:11:00,71.0,61.0,29.84,WSW,247,8.0,12.0,73,-99.99,,,-99.99,,2013-05-09 20:11:00,
2013-05-09 15:22:00,70.0,62.0,29.85,SW,225,6.0,10.0,76,-99.99,,,-99.99,,2013-05-09 20:22:00,
2013-05-09 15:32:00,72.0,62.0,29.85,SW,225,7.0,13.0,72,-99.99,,,-99.99,,2013-05-09 20:32:00,
2013-05-09 15:42:00,72.0,62.0,29.85,SW,225,8.0,13.0,71,-99.99,,,-99.99,,2013-05-09 20:42:00,
2013-05-09 15:52:00,73.0,62.0,29.85,WSW,247,9.0,14.0,68,-99.99,,,-99.99,,2013-05-09 20:52:00,
2013-05-09 16:01:00,72.0,62.0,29.85,SSW,202,7.0,11.0,70,-99.99,,,-99.99,,2013-05-09 21:01:00,
2013-05-09 16:11:00,72.0,61.0,29.85,WSW,247,9.0,13.0,68,-99.99,,,-99.99,,2013-05-09 21:11:00,
2013-05-09 16:22:00,73.0,61.0,29.85,WSW,247,11.0,19.0,66,-99.99,,,-99.99,,2013-05-09 21:22:00,
2013-05-09 16:32:00,72.0,62.0,29.86,South,180,9.0,15.0,71,-99.99,,,-99.99,,2013-05-09 21:32:00,
2013-05-09 16:43:00,74.0,63.0,29.86,SSW,202,9.0,13.0,69,-99.99,,,-99.99,,2013-05-09 21:43:00,
2013-05-09 16:52:00,71.0,61.0,29.85,SSW,202,9.0,14.0,69,-99.99,,,-99.99,,2013-05-09 21:52:00,
2013-05-09 17:03:00,74.0,63.0,29.85,SSW,202,8.0,14.0,69,-99.99,,,-99.99,,2013-05-09 22:03:00,
2013-05-09 17:12:00,72.0,61.0,29.85,SW,225,10.0,14.0,66,-99.99,,,-99.99,,2013-05-09 22:12:00,
2013-05-09 17:22:00,71.0,61.0,29.85,WSW,247,8.0,12.0,71,-99.99,,,-99.99,,2013-05-09 22:22:00,
2013-05-09 17:33:00,72.0,61.0,29.85,SW,225,8.0,13.0,69,-99.99,,,-99.99,,2013-05-09 22:33:00,
2013-05-09 17:42:00,72.0,60.0,29.85,SW,225,8.0,11.0,67,-99.99,,,-99.99,,2013-05-09 22:42:00,
2013-05-09 17:52:00,72.0,60.0,29.85,WSW,247,10.0,13.0,65,-99.99,,,-99.99,,2013-05-09 22:52:00,
2013-05-09 18:02:00,73.0,60.0,29.84,SW,225,6.0,9.0,65,-99.99,,,-99.99,,2013-05-09 23:02:00,
2013-05-09 18:12:00,72.0,59.0,29.83,SW,225,9.0,16.0,63,-99.99,,,-99.99,,2013-05-09 23:12:00,
2013-05-09 18:21:00,72.0,60.0,29.82,SSW,202,8.0,13.0,65,-99.99,,,-99.99,,2013-05-09 23:21:00,
2013-05-09 18:32:00,72.0,59.0,29.83,WSW,247,9.0,13.0,63,-99.99,,,-99.99,,2013-05-09 23:32:00,
2013-05-09 18:42:00,73.0,59.0,29.82,SW,225,7.0,11.0,63,-99.99,,,-99.99,,2013-05-09 23:42:00,
2013-05-09 18:52:00,72.0,60.0,29.83,WSW,247,7.0,13.0,65,-99.99,,,-99.99,,2013-05-09 23:52:00,
2013-05-09 19:01:00,70.0,61.0,29.83,WNW,292,8.0,13.0,73,-99.99,,,-99.99,,2013-05-10 00:01:00,
2013-05-09 19:11:00,70.0,60.0,29.83,WSW,247,6.0,10.0,69,-99.99,,,-99.99,,2013-05-10 00:11:00,
2013-05-09 19:22:00,69.0,61.0,29.83,WNW,292,6.0,9.0,76,-99.99,,,-99.99,,2013-05-10 00:22:00,
2013-05-09 19:32:00,68.0,61.0,29.84,WNW,292,4.0,6.0,78,-99.99,,,-99.99,,2013-05-10 00:32:00,
2013-05-09 19:42:00,67.0,61.0,29.85,WNW,292,4.0,5.0,82,-99.99,,,-99.99,,2013-05-10 00:42:00,
2013-05-09 19:51:00,67.0,60.0,29.85,NW,315,6.0,11.0,79,-99.99,,,-99.99,,2013-05-10 00:51:00,
2013-05-09 20:01:00,67.0,61.0,29.86,WNW,292,7.0,11.0,81,-99.99,,,-99.99,,2013-05-10 01:01:00,
2013-05-09 20:11:00,66.0,60.0,29.86,WNW,292,7.0,12.0,81,-99.99,,,-99.99,,2013-05-10 01:11:00,
2013-05-09 20:21:00,66.0,60.0,29.86,NW,315,8.0,11.0,81,-99.99,,,-99.99,,2013-05-10 01:21:00,
2013-05-09 20:31:00,65.0,60.0,29.86,NW,315,5.0,8.0,83,-99.99,,,-99.99,,2013-05-10 01:31:00,
2013-05-09 20:41:00,64.0,60.0,29.87,NW,315,5.0,7.0,87,-99.99,,,-99.99,,2013-05-10 01:41:00,
2013-05-09 20:52:00,64.0,60.0,29.87,NW,315,6.0,9.0,85,-99.99,,,-99.99,,2013-05-10 01:52:00,
2013-05-09 21:01:00,64.0,59.0,29.87,NW,315,7.0,9.0,83,-99.99,,,-99.99,,2013-05-10 02:01:00,
2013-05-09 21:11:00,63.0,59.0,29.87,NW,315,5.0,6.0,85,-99.99,,,-99.99,,2013-05-10 02:11:00,
2013-05-09 21:21:00,63.0,59.0,29.87,NW,315,4.0,5.0,87,-99.99,,,-99.99,,2013-05-10 02:21:00,
2013-05-09 21:31:00,63.0,59.0,29.88,WNW,292,4.0,6.0,87,-99.99,,,-99.99,,2013-05-10 02:31:00,
2013-05-09 21:42:00,62.0,58.0,29.88,West,270,2.0,3.0,88,-99.99,,,-99.99,,2013-05-10 02:42:00,
2013-05-09 21:52:00,62.0,58.0,29.88,West,270,3.0,5.0,88,-99.99,,,-99.99,,2013-05-10 02:52:00,
2013-05-09 22:01:00,62.0,59.0,29.89,West,270,3.0,4.0,88,-99.99,,,-99.99,,2013-05-10 03:01:00,
2013-05-09 22:11:00,62.0,59.0,29.89,WSW,247,2.0,3.0,90,-99.99,,,-99.99,,2013-05-10 03:11:00,
2013-05-09 22:21:00,62.0,59.0,29.89,West,270,2.0,3.0,90,-99.99,,,-99.99,,2013-05-10 03:21:00,
2013-05-09 22:32:00,62.0,58.0,29.89,West,270,2.0,3.0,88,-99.99,,,-99.99,,2013-05-10 03:32:00,
2013-05-09 22:43:00,62.0,58.0,29.88,WNW,292,2.0,3.0,88,-99.99,,,-99.99,,2013-05-10 03:43:00,
2013-05-09 22:52:00,62.0,59.0,29.88,WNW,292,3.0,4.0,89,-99.99,,,-99.99,,2013-05-10 03:52:00,
2013-05-09 23:03:00,62.0,59.0,29.88,West,270,2.0,3.0,88,-99.99,,,-99.99,,2013-05-10 04:03:00,
2013-05-09 23:12:00,61.0,59.0,29.88,West,270,2.0,3.0,90,-99.99,,,-99.99,,2013-05-10 04:12:00,
2013-05-09 23:23:00,61.0,58.0,29.88,West,270,2.0,3.0,91,-99.99,,,-99.99,,2013-05-10 04:23:00,
2013-05-09 23:33:00,61.0,59.0,29.87,West,270,2.0,3.0,91,-99.99,,,-99.99,,2013-05-10 04:33:00,
2013-05-09 23:42:00,61.0,59.0,29.88,WSW,247,0.0,-999.0,92,-99.99,,,-99.99,,2013-05-10 04:42:00,
2013-05-09 23:52:00,61.0,58.0,29.88,West,270,0.0,-999.0,93,-99.99,,,-99.99,,2013-05-10 04:52:00,